Aviation Digital Data Service (ADDS)

Output produced by TAFs form (2213 UTC 23 November 2014)
found at http://aviationweather.gov/adds/tafs/
 
KELP 231720Z 2318/2418 27025G37KT P6SM SCT100 SCT300 
     TEMPO 2318/2320 27030G40KT 
     FM232000 28026G38KT P6SM SCT110 SCT300 
     TEMPO 2320/2324 29032G47KT 
     FM240000 31015G25KT P6SM FEW250 
     FM240200 35008KT P6SM FEW250